Terminal Aerodrome Forecast
Issued by NWS

Current Version | Previous Version | Text Only | Print | Product List | Glossary On
Versions: 1 2 3 4 5 6 7 8 9 10 11 12 13 14 15 16 17 18 19 20 21 22 23 24 25 26
000 FTUS41 KOKX 312000 AAA TAFHPN TAF AMD KHPN 312038Z 3121/0118 05007KT P6SM FEW030 OVC050 TEMPO 0101/0103 -RA FM010300 03010KT P6SM -RA OVC025 FM010700 02014G21KT 5SM -RA BR OVC015 FM011500 02016G26KT 4SM RA BR OVC012 AMD NOT SKED=

USA.gov is the U.S. government's official web portal to all federal, state and local government web resources and services.